Time;durP1;ratioP1;P1;durP2;ratioP2;P2;SDS_P1;SDS_P2;PMS_P1;PMS_P2;Temp;Humidity;BMP_temperature;BMP_pressure;BME280_temperature;BME280_humidity;BME280_pressure;Samples;Min_cycle;Max_cycle;Signal;HPM_P1;HPM_P2
2023/07/25 00:02:13;;;;;;;7.88;5.53;;;;;;;12.51;100.00;100523.38;5001523;28;20200;-84
2023/07/25 00:04:39;;;;;;;7.05;5.40;;;;;;;12.51;100.00;100510.88;4999483;28;20037;-85
2023/07/25 00:07:05;;;;;;;7.60;5.05;;;;;;;12.52;100.00;100515.25;4998592;28;20076;-85
2023/07/25 00:09:30;;;;;;;8.10;5.20;;;;;;;12.58;100.00;100508.66;5000057;28;20096;-84
2023/07/25 00:11:55;;;;;;;7.93;5.32;;;;;;;12.55;100.00;100514.22;5011177;28;20029;-84
2023/07/25 00:14:21;;;;;;;8.73;5.30;;;;;;;12.55;100.00;100523.06;5001498;28;20038;-85
2023/07/25 00:16:46;;;;;;;9.55;5.45;;;;;;;12.44;100.00;100518.41;4998725;28;20213;-84
2023/07/25 00:19:11;;;;;;;7.93;5.40;;;;;;;12.53;100.00;100519.63;4992872;28;20256;-84
2023/07/25 00:21:37;;;;;;;8.00;5.45;;;;;;;12.42;100.00;100520.31;5003998;28;20033;-84
2023/07/25 00:24:02;;;;;;;8.25;5.65;;;;;;;12.46;100.00;100532.53;5006737;28;20025;-84
2023/07/25 00:26:28;;;;;;;8.50;5.28;;;;;;;12.41;100.00;100525.75;5003353;28;20109;-85
2023/07/25 00:28:53;;;;;;;8.82;5.53;;;;;;;12.36;100.00;100523.38;5003781;28;20025;-84
2023/07/25 00:31:19;;;;;;;11.13;5.53;;;;;;;12.37;100.00;100526.88;5001625;28;20055;-84
2023/07/25 00:33:44;;;;;;;9.30;5.82;;;;;;;12.35;100.00;100519.00;5005668;28;20064;-84
2023/07/25 00:36:09;;;;;;;10.82;6.05;;;;;;;12.35;100.00;100518.13;5005888;28;20107;-84
2023/07/25 00:38:35;;;;;;;8.13;6.07;;;;;;;12.40;100.00;100527.56;5004203;28;20026;-84
2023/07/25 00:41:00;;;;;;;11.35;6.47;;;;;;;12.39;100.00;100523.19;5002126;28;20177;-84
2023/07/25 00:43:26;;;;;;;8.43;6.10;;;;;;;12.41;100.00;100528.41;5002710;28;20018;-84
2023/07/25 00:45:51;;;;;;;11.27;6.35;;;;;;;12.45;100.00;100521.91;5002772;28;20053;-84
2023/07/25 00:48:17;;;;;;;12.50;6.32;;;;;;;12.41;100.00;100523.94;5003029;28;20030;-84
2023/07/25 00:50:42;;;;;;;9.98;6.03;;;;;;;12.45;100.00;100519.25;5000667;28;20123;-84
2023/07/25 00:53:09;;;;;;;8.25;6.00;;;;;;;12.43;100.00;100516.69;4999308;28;20065;-84
2023/07/25 00:55:35;;;;;;;8.93;6.60;;;;;;;12.42;100.00;100519.47;5002705;28;20105;-84
2023/07/25 00:58:00;;;;;;;6.97;5.80;;;;;;;12.38;100.00;100510.81;4992562;28;20068;-84
2023/07/25 01:00:26;;;;;;;11.38;6.90;;;;;;;12.38;100.00;100510.81;5009990;28;20064;-84
2023/07/25 01:02:52;;;;;;;13.07;6.60;;;;;;;12.42;100.00;100519.47;5002321;28;20559;-84
2023/07/25 01:05:19;;;;;;;11.10;6.38;;;;;;;12.41;100.00;100523.94;5003968;28;20034;-84
2023/07/25 01:07:44;;;;;;;10.23;6.43;;;;;;;12.42;100.00;100523.00;5003653;28;20128;-84
2023/07/25 01:10:09;;;;;;;9.95;6.63;;;;;;;12.44;100.00;100504.19;5000472;28;20038;-84
2023/07/25 01:12:35;;;;;;;10.43;6.45;;;;;;;12.48;100.00;100507.53;5000018;28;20041;-84
2023/07/25 01:15:00;;;;;;;8.55;6.60;;;;;;;12.45;100.00;100506.75;5002883;28;20034;-84
2023/07/25 01:17:27;;;;;;;11.45;6.40;;;;;;;12.37;100.00;100498.41;5003492;28;20056;-84
2023/07/25 01:19:54;;;;;;;9.02;6.07;;;;;;;12.38;100.00;100504.63;5004492;28;20041;-84
2023/07/25 01:22:21;;;;;;;8.40;6.82;;;;;;;12.34;100.00;100513.75;5015632;28;20033;-83
2023/07/25 01:24:47;;;;;;;10.30;6.85;;;;;;;12.43;100.00;100507.84;5013838;28;20040;-84
2023/07/25 01:27:14;;;;;;;10.75;7.05;;;;;;;12.42;100.00;100508.81;5010501;28;20025;-84
2023/07/25 01:29:40;;;;;;;10.90;6.85;;;;;;;12.43;100.00;100500.69;5002020;28;20038;-84
2023/07/25 01:32:05;;;;;;;9.68;6.50;;;;;;;12.41;100.00;100494.56;5005109;28;20033;-84
2023/07/25 01:34:31;;;;;;;9.77;6.88;;;;;;;12.40;100.00;100495.53;5003911;28;20987;-84
2023/07/25 01:36:56;;;;;;;7.50;5.93;;;;;;;12.40;100.00;100486.66;5004472;28;20029;-84
2023/07/25 01:39:22;;;;;;;8.60;6.60;;;;;;;12.41;100.00;100491.91;5004738;28;20038;-84
2023/07/25 01:41:47;;;;;;;12.57;6.90;;;;;;;12.40;100.00;100506.22;5004957;28;20651;-84
2023/07/25 01:44:12;;;;;;;8.05;6.32;;;;;;;12.39;100.00;100493.81;5005805;28;20021;-84
2023/07/25 01:46:41;;;;;;;10.23;6.97;;;;;;;12.34;100.00;100479.94;5005102;28;20168;-84
2023/07/25 01:49:09;;;;;;;9.10;6.57;;;;;;;12.33;100.00;100478.22;5002517;28;20033;-84
2023/07/25 01:51:34;;;;;;;10.05;6.72;;;;;;;12.39;100.00;100480.47;4997582;28;20030;-84
2023/07/25 01:54:00;;;;;;;12.18;7.32;;;;;;;12.39;100.00;100485.81;4994013;28;20090;-83
2023/07/25 01:56:25;;;;;;;9.75;6.80;;;;;;;12.28;100.00;100474.97;4994436;28;20038;-83
2023/07/25 01:58:51;;;;;;;10.43;7.20;;;;;;;12.30;100.00;100478.41;4995976;28;20022;-83
2023/07/25 02:01:16;;;;;;;10.07;7.28;;;;;;;12.23;100.00;100478.88;4993612;28;20711;-83
2023/07/25 02:03:41;;;;;;;7.22;6.53;;;;;;;12.13;100.00;100482.16;4990945;28;20116;-84
2023/07/25 02:06:07;;;;;;;10.88;7.07;;;;;;;12.12;100.00;100475.09;5001034;28;20025;-83
2023/07/25 02:08:32;;;;;;;12.20;7.53;;;;;;;12.12;100.00;100480.44;5001415;28;20104;-84
2023/07/25 02:10:58;;;;;;;10.23;7.25;;;;;;;12.10;100.00;100481.47;5003442;28;20402;-84
2023/07/25 02:13:23;;;;;;;10.82;7.05;;;;;;;12.09;100.00;100479.78;5004317;28;20122;-83
2023/07/25 02:15:48;;;;;;;11.27;7.00;;;;;;;11.99;100.00;100476.78;5002221;28;20061;-84
2023/07/25 02:18:14;;;;;;;10.18;6.88;;;;;;;11.96;100.00;100477.88;5002430;28;20756;-83
2023/07/25 02:20:39;;;;;;;12.15;7.95;;;;;;;11.93;100.00;100482.53;5002176;28;20037;-83
2023/07/25 02:23:04;;;;;;;13.35;7.38;;;;;;;11.88;100.00;100479.31;5000574;28;20113;-83
2023/07/25 02:25:30;;;;;;;9.88;8.07;;;;;;;11.79;100.00;100475.38;5009357;28;20024;-83
2023/07/25 02:27:56;;;;;;;10.63;8.15;;;;;;;11.68;100.00;100467.16;5007029;28;20021;-84
2023/07/25 02:30:21;;;;;;;9.18;7.30;;;;;;;11.65;100.00;100472.66;5013590;28;20445;-83
2023/07/25 02:32:47;;;;;;;10.40;7.85;;;;;;;11.62;100.00;100475.50;5003806;28;20049;-84
2023/07/25 02:35:14;;;;;;;9.73;7.15;;;;;;;11.57;100.00;100474.94;5004278;28;20026;-84
2023/07/25 02:37:40;;;;;;;9.70;7.20;;;;;;;11.53;100.00;100473.41;5008259;28;20072;-83
2023/07/25 02:40:06;;;;;;;11.38;7.45;;;;;;;11.46;100.00;100479.13;4999019;28;20057;-84
2023/07/25 02:42:31;;;;;;;11.00;7.63;;;;;;;11.43;100.00;100475.78;5001433;28;20118;-84
2023/07/25 02:44:56;;;;;;;10.20;7.82;;;;;;;11.41;100.00;100478.56;4995692;28;20117;-84
2023/07/25 02:47:22;;;;;;;10.68;7.78;;;;;;;11.32;100.00;100475.56;5035814;28;20120;-84
2023/07/25 02:49:47;;;;;;;11.55;8.13;;;;;;;11.42;100.00;100476.75;5003590;28;20314;-83
2023/07/25 02:52:12;;;;;;;9.48;8.50;;;;;;;11.40;100.00;100470.63;5003943;28;20014;-83
2023/07/25 02:54:38;;;;;;;12.57;9.02;;;;;;;11.45;100.00;100471.22;5002186;28;20407;-84
2023/07/25 02:57:04;;;;;;;11.35;9.00;;;;;;;11.49;100.00;100475.41;4998758;28;20422;-84
2023/07/25 02:59:29;;;;;;;10.45;8.38;;;;;;;11.47;100.00;100458.66;5000974;28;20162;-84
2023/07/25 03:01:54;;;;;;;12.23;8.63;;;;;;;11.53;100.00;100476.94;5000476;28;20033;-84
2023/07/25 03:04:20;;;;;;;9.38;7.90;;;;;;;11.53;100.00;100468.09;5003292;28;20026;-84
2023/07/25 03:06:45;;;;;;;12.98;8.05;;;;;;;11.58;100.00;100469.53;5002146;28;20034;-84
2023/07/25 03:09:10;;;;;;;10.77;8.23;;;;;;;11.60;100.00;100477.44;5001518;28;20550;-84
2023/07/25 03:11:36;;;;;;;12.15;8.07;;;;;;;11.61;100.00;100474.66;4999115;28;20025;-84
2023/07/25 03:14:02;;;;;;;11.82;8.27;;;;;;;11.62;100.00;100476.41;4999525;28;20183;-84
2023/07/25 03:16:27;;;;;;;12.38;8.32;;;;;;;11.63;100.00;100477.25;4999982;28;20046;-84
2023/07/25 03:18:52;;;;;;;11.98;8.45;;;;;;;11.59;100.00;100475.72;4998605;28;20026;-84
2023/07/25 03:21:18;;;;;;;11.27;7.45;;;;;;;11.60;100.00;100464.09;5005505;28;20068;-84
2023/07/25 03:23:43;;;;;;;10.65;7.97;;;;;;;11.58;100.00;100464.22;5006401;28;20040;-84
2023/07/25 03:26:08;;;;;;;15.30;8.45;;;;;;;11.55;100.00;100461.72;5013214;28;20101;-84
2023/07/25 03:28:34;;;;;;;11.30;7.53;;;;;;;11.53;100.00;100465.41;5009133;28;20068;-84
2023/07/25 03:31:00;;;;;;;11.25;8.25;;;;;;;11.50;100.00;100461.16;5004077;28;20030;-84
2023/07/25 03:33:29;;;;;;;11.23;8.15;;;;;;;11.56;100.00;100478.56;5001170;28;20083;-84
2023/07/25 03:35:55;;;;;;;12.68;8.95;;;;;;;11.53;100.00;100468.94;4999403;28;20061;-84
2023/07/25 03:38:20;;;;;;;11.55;8.25;;;;;;;11.61;100.00;100471.13;5000296;28;20605;-84
2023/07/25 03:40:46;;;;;;;11.02;7.85;;;;;;;11.54;100.00;100457.34;5003140;28;20377;-85
2023/07/25 03:43:11;;;;;;;9.55;8.15;;;;;;;11.56;100.00;100450.09;5001667;28;20553;-84
2023/07/25 03:45:36;;;;;;;15.60;8.60;;;;;;;11.67;100.00;100458.31;5003257;28;20025;-85
2023/07/25 03:48:02;;;;;;;12.15;9.23;;;;;;;11.71;100.00;100466.97;5009028;28;20022;-84
2023/07/25 03:50:27;;;;;;;12.13;8.07;;;;;;;11.71;100.00;100469.66;5000574;28;20030;-85
2023/07/25 03:52:52;;;;;;;11.50;8.40;;;;;;;11.74;100.00;100474.75;5006075;28;20034;-84
2023/07/25 03:55:18;;;;;;;12.15;8.95;;;;;;;11.72;100.00;100471.34;4999680;28;20034;-85
2023/07/25 03:57:43;;;;;;;12.95;9.32;;;;;;;11.76;100.00;100470.22;5000801;28;20030;-85
2023/07/25 04:00:09;;;;;;;14.50;9.43;;;;;;;11.76;100.00;100462.22;5001832;28;20026;-84
2023/07/25 04:02:34;;;;;;;12.75;8.75;;;;;;;11.81;100.00;100465.44;4999790;28;20022;-84
2023/07/25 04:05:00;;;;;;;16.02;8.88;;;;;;;11.81;100.00;100465.44;5002310;28;20080;-84
2023/07/25 04:07:25;;;;;;;14.02;8.45;;;;;;;11.81;100.00;100478.78;5001251;28;20061;-84
2023/07/25 04:09:51;;;;;;;11.55;8.68;;;;;;;11.77;100.00;100469.25;5001976;28;20038;-84
2023/07/25 04:12:16;;;;;;;12.43;9.05;;;;;;;11.81;100.00;100469.94;5033363;28;20041;-84
2023/07/25 04:14:41;;;;;;;13.45;9.50;;;;;;;11.76;100.00;100467.53;5008206;28;20049;-84
2023/07/25 04:17:07;;;;;;;11.55;9.07;;;;;;;11.62;100.00;100455.06;5003797;28;20128;-84
2023/07/25 04:19:32;;;;;;;12.10;8.45;;;;;;;11.75;100.00;100464.97;5001565;28;20029;-84
2023/07/25 04:21:58;;;;;;;15.68;8.93;;;;;;;11.71;100.00;100470.50;5000020;28;20022;-85
2023/07/25 04:24:23;;;;;;;10.23;8.68;;;;;;;11.76;100.00;100466.69;5016170;28;20026;-84
2023/07/25 04:26:48;;;;;;;10.48;8.18;;;;;;;11.81;100.00;100468.09;4996677;28;20026;-85
2023/07/25 04:29:14;;;;;;;11.85;9.07;;;;;;;11.81;100.00;100464.59;5003599;28;20141;-84
2023/07/25 04:31:39;;;;;;;12.45;8.77;;;;;;;11.86;100.00;100462.53;5006547;28;20052;-84
2023/07/25 04:34:04;;;;;;;16.90;9.05;;;;;;;11.84;100.00;100464.44;5008634;28;20120;-85
2023/07/25 04:36:30;;;;;;;12.23;8.63;;;;;;;11.81;100.00;100462.78;5006841;28;20067;-85
2023/07/25 04:38:56;;;;;;;12.02;9.20;;;;;;;11.82;100.00;100464.47;5006811;28;20123;-85
2023/07/25 04:41:22;;;;;;;10.13;8.60;;;;;;;11.88;100.00;100464.16;5007357;28;20471;-84
2023/07/25 04:43:48;;;;;;;11.82;8.98;;;;;;;11.91;100.00;100463.97;5006410;28;20152;-85
2023/07/25 04:46:13;;;;;;;11.93;8.63;;;;;;;11.94;100.00;100471.75;5007108;28;20096;-85
2023/07/25 04:48:38;;;;;;;11.02;9.20;;;;;;;12.02;100.00;100479.28;5001186;28;20037;-84
2023/07/25 04:51:04;;;;;;;13.35;8.68;;;;;;;12.04;100.00;100468.50;5004879;28;20044;-85
2023/07/25 04:53:29;;;;;;;15.15;9.05;;;;;;;12.07;100.00;100466.50;5003457;28;20471;-84
2023/07/25 04:55:54;;;;;;;12.35;8.68;;;;;;;12.09;100.00;100469.09;5002077;28;20029;-84
2023/07/25 04:58:20;;;;;;;9.93;7.95;;;;;;;12.15;100.00;100460.69;5004179;28;20143;-84
2023/07/25 05:00:46;;;;;;;12.02;7.97;;;;;;;12.08;100.00;100467.34;4995508;28;20338;-85
2023/07/25 05:03:12;;;;;;;11.90;8.30;;;;;;;12.11;100.00;100468.03;4999365;28;20035;-85
2023/07/25 05:05:37;;;;;;;11.20;8.63;;;;;;;12.18;100.00;100469.38;5004441;28;20025;-85
2023/07/25 05:08:03;;;;;;;13.00;8.30;;;;;;;12.21;100.00;100463.84;5003511;28;20022;-85
2023/07/25 05:10:28;;;;;;;13.27;8.52;;;;;;;12.20;100.00;100461.25;5002201;28;20112;-84
2023/07/25 05:12:53;;;;;;;10.98;8.25;;;;;;;12.33;100.00;100478.22;4999691;28;20022;-85
2023/07/25 05:15:19;;;;;;;9.88;8.05;;;;;;;12.40;100.00;100471.50;5006849;28;20046;-86
2023/07/25 05:17:44;;;;;;;14.45;8.60;;;;;;;12.43;100.00;100467.81;4997641;28;20050;-85
2023/07/25 05:20:10;;;;;;;14.63;9.05;;;;;;;12.55;100.00;100479.50;4998248;28;20040;-87
2023/07/25 05:22:35;;;;;;;11.25;8.10;;;;;;;12.68;100.00;100477.75;5002552;28;20033;-88
2023/07/25 05:25:00;;;;;;;14.80;9.70;;;;;;;12.79;100.00;100480.56;5003990;28;20033;-90
2023/07/25 05:27:26;;;;;;;14.75;9.60;;;;;;;12.89;100.00;100479.00;5011478;28;20128;-87
2023/07/25 05:29:51;;;;;;;11.48;8.13;;;;;;;12.99;100.00;100479.22;5005286;28;20033;-86
2023/07/25 05:32:16;;;;;;;13.15;7.57;;;;;;;13.14;100.00;100488.91;5002764;28;20383;-87
2023/07/25 05:34:42;;;;;;;13.07;7.70;;;;;;;13.19;100.00;100491.25;5002459;28;20033;-87
2023/07/25 05:37:07;;;;;;;11.80;7.38;;;;;;;13.18;100.00;100481.53;5001704;28;20030;-87
2023/07/25 05:39:33;;;;;;;10.48;6.55;;;;;;;13.25;100.00;100492.69;4998706;28;20106;-87
2023/07/25 05:41:58;;;;;;;22.88;10.10;;;;;;;13.31;100.00;100487.78;5000154;28;20029;-87
2023/07/25 05:44:23;;;;;;;21.35;9.20;;;;;;;13.33;100.00;100491.19;5003741;28;20156;-86
2023/07/25 05:46:49;;;;;;;15.60;7.50;;;;;;;13.36;100.00;100498.16;5008578;28;20109;-87
2023/07/25 05:49:14;;;;;;;18.23;7.20;;;;;;;13.41;100.00;100504.91;5003650;28;20112;-86
2023/07/25 05:51:39;;;;;;;12.40;6.85;;;;;;;13.37;100.00;100500.72;5002105;28;20120;-86
2023/07/25 05:54:05;;;;;;;10.73;5.85;;;;;;;13.40;100.00;100497.00;5001881;28;20026;-86
2023/07/25 05:56:30;;;;;;;9.68;5.50;;;;;;;13.37;100.00;100490.03;4999088;28;20076;-86
2023/07/25 05:58:55;;;;;;;11.15;5.47;;;;;;;13.45;100.00;100486.84;4993418;28;20025;-86
2023/07/25 06:01:21;;;;;;;10.68;6.15;;;;;;;13.55;100.00;100487.94;5000636;28;20052;-86
2023/07/25 06:03:46;;;;;;;14.18;6.47;;;;;;;13.64;100.00;100498.00;5002930;28;20401;-86
2023/07/25 06:06:11;;;;;;;37.58;10.15;;;;;;;13.66;100.00;100495.22;5000930;28;20030;-86
2023/07/25 06:08:37;;;;;;;11.52;5.40;;;;;;;13.61;100.00;100487.50;5001078;28;20336;-86
2023/07/25 06:11:02;;;;;;;9.77;5.63;;;;;;;13.68;100.00;100504.00;4998191;28;20030;-87
2023/07/25 06:13:28;;;;;;;11.95;6.03;;;;;;;13.69;100.00;100495.84;5003033;28;20498;-86
2023/07/25 06:15:53;;;;;;;23.05;6.72;;;;;;;13.69;100.00;100495.00;5002113;28;20029;-87
2023/07/25 06:18:18;;;;;;;14.52;5.80;;;;;;;13.72;100.00;100507.31;5008312;28;20049;-86
2023/07/25 06:20:46;;;;;;;10.80;5.50;;;;;;;13.79;100.00;100511.25;5013120;28;20091;-86
2023/07/25 06:23:11;;;;;;;19.50;6.03;;;;;;;13.89;100.00;100513.19;5008375;28;20021;-86
2023/07/25 06:25:37;;;;;;;13.48;5.45;;;;;;;13.99;100.00;100496.50;5006675;28;20029;-86
2023/07/25 06:28:04;;;;;;;10.82;5.18;;;;;;;14.06;100.00;100495.09;5009301;28;20025;-86
2023/07/25 06:30:30;;;;;;;7.70;4.78;;;;;;;14.11;100.00;100488.44;5007197;28;20026;-86
2023/07/25 06:32:55;;;;;;;10.32;4.47;;;;;;;14.31;100.00;100504.91;5007553;28;20033;-86
2023/07/25 06:35:22;;;;;;;12.23;4.55;;;;;;;14.41;100.00;100509.47;5014327;28;20506;-86
2023/07/25 06:37:48;;;;;;;11.63;4.07;;;;;;;14.50;100.00;100515.19;5004963;28;20554;-87
2023/07/25 06:40:14;;;;;;;9.68;3.85;;;;;;;14.70;100.00;100511.91;5004423;28;20491;-85
2023/07/25 06:42:39;;;;;;;8.90;3.92;;;;;;;14.86;100.00;100506.28;5007761;28;20029;-86
2023/07/25 06:45:05;;;;;;;8.40;4.13;;;;;;;14.97;100.00;100513.53;5009370;28;20030;-87
2023/07/25 06:47:31;;;;;;;7.43;3.00;;;;;;;15.09;100.00;100509.91;4997984;28;20034;-86
2023/07/25 06:49:57;;;;;;;7.18;3.22;;;;;;;14.97;100.00;100500.97;4998327;28;20025;-87
2023/07/25 06:52:23;;;;;;;6.53;3.28;;;;;;;15.23;100.00;100500.84;4997636;28;20524;-86
2023/07/25 06:54:49;;;;;;;8.48;3.45;;;;;;;15.40;100.00;100509.31;4997086;28;20030;-86
2023/07/25 06:57:14;;;;;;;7.45;3.25;;;;;;;15.51;100.00;100508.50;4998617;28;20046;-85
2023/07/25 06:59:39;;;;;;;7.13;3.00;;;;;;;15.55;99.61;100496.56;5000282;28;20030;-85
2023/07/25 07:02:05;;;;;;;8.50;3.67;;;;;;;15.64;100.00;100517.34;5001565;28;20036;-86
2023/07/25 07:04:31;;;;;;;6.60;2.90;;;;;;;15.86;98.66;100513.84;5000816;28;20030;-86
2023/07/25 07:06:56;;;;;;;7.10;3.55;;;;;;;16.24;98.29;100518.00;4997962;28;20041;-86
2023/07/25 07:09:21;;;;;;;6.15;3.40;;;;;;;16.60;96.79;100521.41;4998570;28;20605;-86
2023/07/25 07:11:47;;;;;;;6.68;3.28;;;;;;;16.75;92.49;100522.00;4998519;28;20550;-86
2023/07/25 07:14:12;;;;;;;9.15;3.55;;;;;;;16.98;91.15;100528.19;5001250;28;20056;-86
2023/07/25 07:16:37;;;;;;;6.03;3.63;;;;;;;17.41;93.37;100531.69;5000079;28;20053;-86
2023/07/25 07:19:03;;;;;;;6.63;3.38;;;;;;;17.27;88.46;100529.31;4998004;28;20201;-85
2023/07/25 07:21:29;;;;;;;8.57;3.15;;;;;;;17.09;91.02;100536.22;4996204;28;20029;-86
2023/07/25 07:23:54;;;;;;;7.32;3.67;;;;;;;16.90;89.09;100532.38;5002773;28;20042;-86
2023/07/25 07:26:20;;;;;;;8.65;4.30;;;;;;;17.10;90.22;100527.19;5001890;28;20034;-86
2023/07/25 07:28:45;;;;;;;8.45;3.30;;;;;;;17.53;90.30;100523.56;4998266;28;20060;-85
2023/07/25 07:31:12;;;;;;;7.63;3.03;;;;;;;18.01;86.33;100520.34;5001669;28;20552;-85
2023/07/25 07:33:37;;;;;;;5.32;2.53;;;;;;;18.55;84.19;100527.25;4997677;28;20045;-86
2023/07/25 07:36:03;;;;;;;7.60;3.38;;;;;;;19.30;82.03;100536.63;5000278;28;20026;-85
2023/07/25 07:38:29;;;;;;;7.00;2.70;;;;;;;19.89;76.48;100530.19;5001101;28;20030;-86
2023/07/25 07:40:54;;;;;;;7.53;2.30;;;;;;;20.30;70.45;100536.19;4999289;28;20032;-86
2023/07/25 07:43:19;;;;;;;9.93;2.67;;;;;;;20.26;70.34;100541.03;4998063;28;20167;-86
2023/07/25 07:45:46;;;;;;;7.25;2.70;;;;;;;20.04;72.39;100538.72;5012467;28;20442;-86
2023/07/25 07:48:11;;;;;;;6.88;2.63;;;;;;;19.09;72.25;100523.28;4997610;28;20226;-85
2023/07/25 07:50:36;;;;;;;5.60;2.25;;;;;;;18.48;76.57;100535.03;4997656;28;20040;-86
2023/07/25 07:53:03;;;;;;;7.53;2.60;;;;;;;17.78;78.78;100544.75;4997551;28;20033;-86
2023/07/25 07:55:29;;;;;;;7.85;2.45;;;;;;;17.22;85.09;100549.50;4994712;28;20120;-87
2023/07/25 07:57:55;;;;;;;8.40;2.58;;;;;;;16.73;85.46;100546.34;5001748;28;20066;-86
2023/07/25 08:00:21;;;;;;;5.88;2.13;;;;;;;16.32;87.83;100545.13;4999867;28;20119;-87
2023/07/25 08:02:47;;;;;;;6.60;2.55;;;;;;;16.09;90.99;100562.19;4999951;28;20034;-87
2023/07/25 08:05:13;;;;;;;5.35;2.28;;;;;;;15.75;91.41;100550.53;5000535;28;20026;-87
2023/07/25 08:07:39;;;;;;;8.23;2.80;;;;;;;15.61;94.13;100548.88;4998410;28;20689;-86
2023/07/25 08:10:04;;;;;;;9.10;2.78;;;;;;;15.64;95.08;100562.06;5000204;28;20024;-85
2023/07/25 08:12:30;;;;;;;6.93;2.80;;;;;;;15.61;95.13;100562.28;4998357;28;20026;-85
2023/07/25 08:14:56;;;;;;;8.05;2.47;;;;;;;15.62;93.80;100558.63;4999060;28;20167;-85
2023/07/25 08:17:21;;;;;;;8.30;3.00;;;;;;;15.71;95.62;100554.41;4999535;28;20058;-86
2023/07/25 08:19:48;;;;;;;5.47;2.28;;;;;;;15.82;90.27;100563.34;4998940;28;20060;-87
2023/07/25 08:22:14;;;;;;;6.05;2.40;;;;;;;16.07;93.49;100561.44;4996818;28;20034;-87
2023/07/25 08:24:40;;;;;;;7.55;2.70;;;;;;;16.15;89.26;100567.94;4993887;28;20030;-87
2023/07/25 08:27:06;;;;;;;6.60;2.75;;;;;;;16.17;89.97;100571.34;4996234;28;20514;-87
2023/07/25 08:29:31;;;;;;;8.45;3.00;;;;;;;16.17;88.98;100578.53;5031672;28;20129;-87
2023/07/25 08:31:57;;;;;;;8.13;2.85;;;;;;;16.08;90.47;100564.00;5002431;28;20078;-87
2023/07/25 08:34:23;;;;;;;6.75;2.83;;;;;;;16.01;89.87;100581.59;5011214;28;20407;-87
2023/07/25 08:36:48;;;;;;;11.48;2.53;;;;;;;15.76;91.30;100577.25;4997165;28;20033;-87
2023/07/25 08:39:14;;;;;;;8.50;3.17;;;;;;;15.59;92.07;100581.19;5003663;28;20398;-87
2023/07/25 08:41:43;;;;;;;8.18;2.53;;;;;;;15.52;92.72;100584.47;4994794;28;20030;-87
2023/07/25 08:44:10;;;;;;;6.35;2.60;;;;;;;15.42;94.24;100584.28;4999616;28;20113;-87
2023/07/25 08:46:38;;;;;;;5.30;2.60;;;;;;;15.43;97.79;100596.75;4999809;28;20307;-87
2023/07/25 08:49:10;;;;;;;6.30;2.20;;;;;;;15.31;96.30;100592.28;4996775;28;20056;-87
2023/07/25 08:51:40;;;;;;;6.78;2.58;;;;;;;15.20;95.48;100582.34;5000752;28;20036;-88
2023/07/25 08:54:16;;;;;;;6.95;2.70;;;;;;;15.45;97.65;100597.47;4998278;28;20470;-88
2023/07/25 08:56:42;;;;;;;4.65;2.42;;;;;;;15.77;96.28;100599.56;5000360;28;20063;-88
2023/07/25 08:59:07;;;;;;;6.63;2.35;;;;;;;16.23;92.98;100599.56;5001562;28;20029;-88
2023/07/25 09:01:33;;;;;;;7.18;2.25;;;;;;;16.85;90.21;100598.25;4998989;28;20030;-87
2023/07/25 09:04:00;;;;;;;6.35;2.20;;;;;;;17.82;83.06;100600.03;4996665;28;20053;-87
2023/07/25 09:06:27;;;;;;;5.15;1.80;;;;;;;18.41;79.42;100601.22;5007659;28;20030;-87
2023/07/25 09:08:53;;;;;;;5.20;2.10;;;;;;;19.08;75.08;100594.41;5006169;28;20561;-87
2023/07/25 09:11:20;;;;;;;6.93;2.40;;;;;;;19.27;73.49;100598.97;5009800;28;20068;-87
2023/07/25 09:13:45;;;;;;;4.97;1.90;;;;;;;19.34;70.18;100600.13;5020753;28;20030;-87
2023/07/25 09:16:11;;;;;;;4.95;1.80;;;;;;;19.15;69.07;100601.81;5020489;28;20026;-86
2023/07/25 09:18:36;;;;;;;4.38;1.50;;;;;;;19.93;69.78;100596.44;5017246;28;20029;-87
2023/07/25 09:21:02;;;;;;;4.20;1.65;;;;;;;20.44;67.12;100597.03;5015193;28;20065;-87
2023/07/25 09:23:28;;;;;;;3.55;1.70;;;;;;;20.52;64.18;100605.28;5016461;28;20040;-86
2023/07/25 09:26:10;;;;;;;5.60;1.92;;;;;;;21.27;64.63;100592.50;5010963;28;20364;-86
2023/07/25 09:28:46;;;;;;;3.75;1.38;;;;;;;23.19;57.12;100592.47;4998346;28;20068;-87
2023/07/25 09:31:12;;;;;;;4.15;1.50;;;;;;;24.93;51.21;100593.91;5004692;28;20072;-86
2023/07/25 09:33:38;;;;;;;4.35;1.40;;;;;;;25.26;47.04;100598.16;5012104;28;20768;-84
2023/07/25 09:36:05;;;;;;;3.33;1.33;;;;;;;26.60;47.74;100610.34;5001962;28;20084;-84
2023/07/25 09:38:31;;;;;;;3.70;1.50;;;;;;;27.45;42.73;100600.72;5001976;28;20437;-84
2023/07/25 09:40:56;;;;;;;5.10;1.58;;;;;;;26.08;42.35;100608.47;5003108;28;20131;-84
2023/07/25 09:43:26;;;;;;;4.05;1.30;;;;;;;24.99;47.98;100610.34;5001528;28;20117;-86
2023/07/25 09:45:52;;;;;;;3.97;1.48;;;;;;;24.25;46.04;100617.88;4999199;28;20105;-86
2023/07/25 09:48:18;;;;;;;5.30;1.58;;;;;;;24.54;47.09;100613.78;5010451;28;20026;-86
2023/07/25 09:50:46;;;;;;;4.22;1.30;;;;;;;25.04;46.10;100612.53;5001063;28;20034;-84
2023/07/25 09:53:14;;;;;;;2.33;1.30;;;;;;;25.84;45.44;100609.53;4999263;28;20030;-84
2023/07/25 09:55:40;;;;;;;2.70;1.30;;;;;;;27.01;40.38;100613.44;4999425;28;20609;-86
2023/07/25 09:58:05;;;;;;;4.10;1.73;;;;;;;28.36;40.10;100611.91;4999735;28;20062;-84
2023/07/25 10:00:31;;;;;;;5.50;1.30;;;;;;;28.89;35.06;100604.00;4999360;28;20446;-85
2023/07/25 10:03:00;;;;;;;2.65;1.17;;;;;;;28.31;36.28;100607.00;4997491;28;20029;-87
2023/07/25 10:05:28;;;;;;;2.97;1.05;;;;;;;28.74;35.08;100609.59;4999602;28;20030;-86
2023/07/25 10:07:53;;;;;;;3.78;1.40;;;;;;;29.35;33.11;100609.69;4998903;28;20022;-86
2023/07/25 10:10:19;;;;;;;4.32;1.70;;;;;;;28.96;32.78;100602.13;5003462;28;20520;-86
2023/07/25 10:12:45;;;;;;;5.50;1.30;;;;;;;26.64;37.13;100616.28;5000935;28;20050;-84
2023/07/25 10:15:12;;;;;;;3.80;1.50;;;;;;;25.83;39.65;100619.63;5009568;28;20041;-84
2023/07/25 10:17:37;;;;;;;3.60;1.80;;;;;;;25.02;41.19;100615.44;5002294;28;20180;-84
2023/07/25 10:20:05;;;;;;;3.22;1.60;;;;;;;24.73;40.58;100615.25;5003155;28;20132;-84
2023/07/25 10:22:40;;;;;;;3.67;1.30;;;;;;;27.23;38.90;100606.16;4997707;28;20034;-84
2023/07/25 10:25:10;;;;;;;3.63;1.40;;;;;;;29.21;33.66;100603.28;4999872;28;20033;-84
2023/07/25 10:27:36;;;;;;;5.00;1.15;;;;;;;30.52;32.11;100613.81;5000049;28;20514;-84
2023/07/25 10:30:02;;;;;;;4.45;1.23;;;;;;;29.00;31.63;100607.00;5002512;28;20026;-83
2023/07/25 10:32:46;;;;;;;3.58;1.50;;;;;;;27.08;37.91;100597.94;5002217;28;20422;-84
2023/07/25 10:35:11;;;;;;;3.92;1.20;;;;;;;24.97;39.48;100606.97;4995711;28;20083;-83
2023/07/25 10:37:44;;;;;;;2.58;1.10;;;;;;;23.27;44.04;100611.50;5001957;28;20022;-83
2023/07/25 10:40:15;;;;;;;4.15;1.50;;;;;;;22.05;46.64;100615.25;5011648;28;20644;-85
2023/07/25 10:42:45;;;;;;;5.35;1.58;;;;;;;21.15;48.05;100616.22;5001155;28;20075;-83
2023/07/25 10:45:21;;;;;;;4.95;1.45;;;;;;;20.74;50.32;100613.03;5038433;28;20069;-84
2023/07/25 10:47:48;;;;;;;3.60;1.40;;;;;;;20.40;49.89;100618.13;5038123;28;20152;-84
2023/07/25 10:50:17;;;;;;;4.28;1.50;;;;;;;20.27;52.77;100615.72;5001216;28;20028;-83
2023/07/25 10:52:44;;;;;;;6.20;1.60;;;;;;;20.61;51.56;100621.50;5003542;28;20038;-84
2023/07/25 10:55:14;;;;;;;4.05;1.27;;;;;;;22.84;47.80;100621.53;5000499;28;20113;-84
2023/07/25 10:57:39;;;;;;;3.63;1.10;;;;;;;25.90;38.72;100603.34;5014666;28;20053;-84
2023/07/25 11:00:10;;;;;;;3.25;1.13;;;;;;;27.82;36.17;100607.00;5001977;28;20764;-85
2023/07/25 11:02:42;;;;;;;3.45;1.00;;;;;;;29.16;33.64;100603.06;5027644;28;20038;-84
2023/07/25 11:05:14;;;;;;;3.85;1.00;;;;;;;30.15;31.23;100596.09;4995404;28;20040;-84
2023/07/25 11:07:45;;;;;;;4.32;1.02;;;;;;;31.17;29.88;100602.81;4997322;28;20038;-84
2023/07/25 11:10:11;;;;;;;1.63;1.10;;;;;;;32.14;27.60;100593.28;5008283;28;20072;-84
2023/07/25 11:12:36;;;;;;;2.45;1.00;;;;;;;32.67;26.88;100590.03;5003784;28;20061;-85